createdAt,value
2022-12-08T00:01:09.072Z,3.12
2022-12-08T00:03:38.855Z,3.28
2022-12-08T00:06:07.658Z,3.16
2022-12-08T00:08:35.912Z,3.26
2022-12-08T00:11:02.625Z,3.11
2022-12-08T00:13:29.499Z,3.20
2022-12-08T00:16:00.722Z,3.07
2022-12-08T00:18:27.168Z,3.10
2022-12-08T00:20:57.768Z,3.14
2022-12-08T00:23:24.423Z,2.75
2022-12-08T00:25:51.143Z,3.19
2022-12-08T00:28:17.690Z,3.19
2022-12-08T00:30:44.577Z,3.19
2022-12-08T00:33:12.132Z,3.27
2022-12-08T00:35:42.926Z,3.22
2022-12-08T00:38:09.887Z,3.25
2022-12-08T00:40:36.496Z,3.45
2022-12-08T00:43:03.207Z,2.93
2022-12-08T00:45:29.709Z,2.92
2022-12-08T00:47:56.207Z,3.34
2022-12-08T00:50:22.798Z,3.32
2022-12-08T00:52:49.302Z,3.36
2022-12-08T00:55:15.987Z,3.33
2022-12-08T00:57:42.582Z,3.38
2022-12-08T01:00:09.569Z,3.40
2022-12-08T01:02:39.384Z,3.39
2022-12-08T01:05:06.434Z,2.94
2022-12-08T01:07:33.624Z,3.34
2022-12-08T01:10:00.843Z,3.40
2022-12-08T01:12:29.605Z,3.29
2022-12-08T01:15:01.937Z,3.44
2022-12-08T01:17:28.852Z,3.49
2022-12-08T01:19:55.294Z,3.33
2022-12-08T01:22:21.771Z,3.40
2022-12-08T01:24:48.326Z,3.45
2022-12-08T01:27:16.120Z,3.06
2022-12-08T01:29:42.589Z,3.37
2022-12-08T01:32:09.595Z,3.34
2022-12-08T01:34:36.150Z,3.49
2022-12-08T01:37:02.899Z,3.35
2022-12-08T01:39:29.500Z,3.00
2022-12-08T01:41:56.014Z,3.34
2022-12-08T01:44:22.417Z,3.45
2022-12-08T01:46:48.987Z,3.36
2022-12-08T01:49:18.594Z,3.37
2022-12-08T01:51:57.072Z,3.37
2022-12-08T01:54:26.737Z,3.40
2022-12-08T01:57:00.774Z,3.44
2022-12-08T01:59:30.467Z,2.88
2022-12-08T02:01:57.888Z,3.28
2022-12-08T02:04:24.384Z,2.86
2022-12-08T02:06:51.671Z,3.22
2022-12-08T02:09:20.106Z,3.24
2022-12-08T02:11:46.988Z,3.30
2022-12-08T02:14:14.466Z,3.27
2022-12-08T02:17:03.261Z,3.37
2022-12-08T02:19:53.850Z,3.38
2022-12-08T02:22:43.678Z,3.36
2022-12-08T02:25:22.724Z,3.35
2022-12-08T02:28:06.216Z,3.41
2022-12-08T02:30:41.679Z,3.10
2022-12-08T02:33:27.849Z,3.39
2022-12-08T02:35:59.678Z,3.31
2022-12-08T02:38:45.759Z,2.94
2022-12-08T02:41:37.905Z,3.15
2022-12-08T02:44:07.108Z,3.42
2022-12-08T02:46:44.406Z,3.29
2022-12-08T02:49:10.913Z,3.40
2022-12-08T02:51:37.349Z,3.44
2022-12-08T02:54:03.884Z,3.36
2022-12-08T02:56:57.497Z,3.36
2022-12-08T02:59:51.300Z,3.64
2022-12-08T03:02:20.443Z,3.72
2022-12-08T03:04:58.831Z,3.61
2022-12-08T03:07:45.657Z,3.14
2022-12-08T03:10:33.043Z,3.41
2022-12-08T03:13:07.527Z,2.66
2022-12-08T03:15:36.976Z,3.07
2022-12-08T03:18:06.418Z,2.97
2022-12-08T03:20:34.545Z,2.70
2022-12-08T03:23:05.323Z,3.11
2022-12-08T03:25:36.334Z,2.67
2022-12-08T03:28:02.879Z,2.64
2022-12-08T03:30:32.367Z,2.66
2022-12-08T03:33:07.707Z,2.82
2022-12-08T03:35:38.143Z,3.17
2022-12-08T03:38:16.473Z,3.04
2022-12-08T03:40:44.265Z,3.12
2022-12-08T03:43:10.763Z,3.12
2022-12-08T03:45:37.153Z,3.10
2022-12-08T03:48:03.732Z,3.05
2022-12-08T03:50:30.192Z,3.03
2022-12-08T03:52:56.640Z,3.04
2022-12-08T03:55:23.045Z,2.94
2022-12-08T03:57:49.489Z,2.93
2022-12-08T04:00:16.899Z,2.86
2022-12-08T04:02:43.724Z,2.71
2022-12-08T04:05:10.497Z,2.57
2022-12-08T04:07:37.001Z,2.18
2022-12-08T04:10:04.490Z,2.21
2022-12-08T04:12:31.095Z,2.66
2022-12-08T04:14:57.519Z,2.30
2022-12-08T04:17:23.901Z,2.25
2022-12-08T04:19:50.293Z,2.39
2022-12-08T04:22:16.739Z,2.87
2022-12-08T04:24:43.145Z,2.88
2022-12-08T04:27:09.543Z,3.01
2022-12-08T04:29:36.021Z,3.07
2022-12-08T04:32:02.466Z,3.13
2022-12-08T04:34:28.898Z,2.99
2022-12-08T04:36:55.307Z,2.92
2022-12-08T04:39:21.760Z,3.21
2022-12-08T04:41:48.209Z,3.06
2022-12-08T04:44:14.616Z,3.03
2022-12-08T04:46:43.531Z,2.99
2022-12-08T04:49:10.453Z,2.93
2022-12-08T04:51:37.001Z,2.64
2022-12-08T04:54:03.472Z,2.89
2022-12-08T04:56:29.895Z,2.74
2022-12-08T04:58:56.312Z,3.11
2022-12-08T05:01:22.870Z,3.13
2022-12-08T05:03:49.296Z,2.94
2022-12-08T05:06:16.254Z,3.09
2022-12-08T05:08:43.236Z,3.01
2022-12-08T05:11:11.167Z,3.51
2022-12-08T05:13:37.585Z,3.02
2022-12-08T05:16:09.468Z,3.53
2022-12-08T05:18:36.826Z,3.11
2022-12-08T05:21:04.096Z,3.21
2022-12-08T05:23:31.002Z,3.50
2022-12-08T05:25:57.632Z,3.50
2022-12-08T05:31:15.133Z,3.10
2022-12-08T05:33:42.289Z,3.05
2022-12-08T05:36:09.990Z,3.49
2022-12-08T05:38:36.384Z,3.29
2022-12-08T05:41:02.819Z,3.15
2022-12-08T05:43:29.323Z,3.19
2022-12-08T05:45:55.852Z,3.64
2022-12-08T05:48:22.379Z,3.55
2022-12-08T05:50:50.087Z,2.78
2022-12-08T05:53:17.745Z,3.60
2022-12-08T05:55:44.606Z,3.72
2022-12-08T05:58:20.843Z,3.65
2022-12-08T06:00:48.607Z,3.72
2022-12-08T06:03:16.658Z,3.79
2022-12-08T06:05:45.586Z,3.69
2022-12-08T06:08:12.950Z,3.59
2022-12-08T06:10:41.332Z,3.62
2022-12-08T06:13:08.538Z,3.39
2022-12-08T06:15:38.864Z,3.60
2022-12-08T06:18:05.491Z,3.47
2022-12-08T06:20:32.058Z,3.50
2022-12-08T06:22:58.516Z,3.54
2022-12-08T06:25:25.196Z,3.41
2022-12-08T06:27:51.638Z,3.17
2022-12-08T06:30:18.210Z,2.81
2022-12-08T06:32:44.607Z,3.62
2022-12-08T06:35:11.068Z,3.65
2022-12-08T06:37:37.492Z,3.30
2022-12-08T06:40:04.486Z,3.60
2022-12-08T06:42:31.147Z,3.24
2022-12-08T06:44:57.646Z,3.48
2022-12-08T06:47:26.300Z,3.06
2022-12-08T06:49:52.946Z,3.61
2022-12-08T06:52:19.347Z,3.59
2022-12-08T06:54:45.747Z,3.49
2022-12-08T06:57:12.145Z,3.35
2022-12-08T06:59:39.505Z,3.44
2022-12-08T07:02:06.057Z,3.21
2022-12-08T07:04:32.531Z,3.49
2022-12-08T07:06:58.964Z,3.31
2022-12-08T07:09:25.394Z,3.59
2022-12-08T07:11:51.862Z,3.77
2022-12-08T07:14:18.298Z,3.82
2022-12-08T07:16:44.816Z,3.65
2022-12-08T07:19:11.298Z,3.43
2022-12-08T07:21:37.682Z,3.42
2022-12-08T07:24:04.335Z,3.78
2022-12-08T07:26:30.716Z,3.50
2022-12-08T07:28:57.172Z,3.08
2022-12-08T07:31:24.850Z,3.44
2022-12-08T07:33:52.503Z,3.10
2022-12-08T07:36:19.273Z,2.68
2022-12-08T07:38:45.907Z,2.93
2022-12-08T07:41:17.445Z,2.94
2022-12-08T07:43:44.269Z,2.42
2022-12-08T07:46:15.526Z,2.55
2022-12-08T07:48:42.813Z,2.80
2022-12-08T07:51:11.621Z,2.70
2022-12-08T07:53:42.425Z,2.50
2022-12-08T07:56:10.928Z,2.69
2022-12-08T07:58:37.453Z,2.38
2022-12-08T08:01:04.486Z,2.32
2022-12-08T08:03:31.149Z,2.59
2022-12-08T08:06:04.769Z,2.60
2022-12-08T08:08:31.753Z,2.22
2022-12-08T08:10:58.686Z,2.67
2022-12-08T08:13:25.150Z,2.66
2022-12-08T08:15:51.663Z,2.64
2022-12-08T08:18:18.164Z,2.28
2022-12-08T08:20:44.613Z,2.68
2022-12-08T08:23:11.049Z,2.73
2022-12-08T08:25:37.455Z,2.57
2022-12-08T08:28:03.880Z,2.52
2022-12-08T08:30:30.293Z,2.74
2022-12-08T08:32:56.684Z,2.68
2022-12-08T08:35:23.065Z,2.88
2022-12-08T08:37:49.743Z,2.87
2022-12-08T08:40:17.449Z,2.27
2022-12-08T08:42:43.852Z,2.21
2022-12-08T08:45:10.814Z,2.75
2022-12-08T08:47:37.297Z,2.63
2022-12-08T08:50:04.632Z,2.26
2022-12-08T08:52:31.249Z,2.54
2022-12-08T08:54:57.689Z,2.60
2022-12-08T08:57:25.968Z,2.95
2022-12-08T08:59:53.248Z,2.86
2022-12-08T09:02:20.950Z,3.10
2022-12-08T09:04:47.538Z,2.88
2022-12-08T09:07:15.012Z,3.15
2022-12-08T09:09:41.621Z,3.02
2022-12-08T09:12:08.295Z,3.21
2022-12-08T09:14:34.925Z,2.92
2022-12-08T09:17:01.366Z,3.14
2022-12-08T09:19:27.835Z,3.18
2022-12-08T09:21:54.325Z,2.96
2022-12-08T09:24:20.776Z,3.26
2022-12-08T09:26:47.208Z,3.13
2022-12-08T09:29:13.699Z,3.21
2022-12-08T09:31:40.990Z,2.83
2022-12-08T09:34:07.513Z,2.79
2022-12-08T09:36:33.941Z,3.27
2022-12-08T09:39:00.466Z,3.34
2022-12-08T09:41:58.313Z,2.94
2022-12-08T09:45:01.970Z,3.28
2022-12-08T09:47:42.415Z,3.30
2022-12-08T09:50:30.934Z,3.34
2022-12-08T09:53:06.124Z,3.20
2022-12-08T09:55:55.620Z,3.08
2022-12-08T09:58:31.717Z,3.06
2022-12-08T10:00:58.509Z,3.31
2022-12-08T10:03:29.366Z,3.16
2022-12-08T10:06:33.379Z,3.27
2022-12-08T10:09:17.171Z,3.17
2022-12-08T10:12:05.381Z,3.04
2022-12-08T10:14:43.598Z,3.05
2022-12-08T10:17:26.666Z,3.37
2022-12-08T10:20:15.998Z,3.42
2022-12-08T10:22:44.979Z,3.49
2022-12-08T10:25:28.525Z,3.49
2022-12-08T10:28:00.870Z,2.66
2022-12-08T10:30:27.256Z,3.75
2022-12-08T10:32:53.923Z,3.51
2022-12-08T10:35:23.504Z,3.40
2022-12-08T10:37:58.312Z,3.39
2022-12-08T10:40:28.745Z,3.26
2022-12-08T10:42:57.667Z,3.58
2022-12-08T10:45:26.832Z,3.25
2022-12-08T10:48:00.989Z,3.34
2022-12-08T10:50:36.824Z,3.43
2022-12-08T10:53:09.050Z,3.41
2022-12-08T10:55:51.283Z,3.40
2022-12-08T10:58:32.665Z,3.31
2022-12-08T11:01:13.337Z,2.75
2022-12-08T11:03:48.534Z,3.06
2022-12-08T11:06:22.344Z,2.68
2022-12-08T11:08:52.826Z,2.84
2022-12-08T11:11:27.493Z,3.15
2022-12-08T11:13:56.292Z,3.04
2022-12-08T11:16:23.575Z,2.91
2022-12-08T11:18:56.724Z,2.91
2022-12-08T11:21:36.412Z,2.87
2022-12-08T11:24:23.793Z,3.26
2022-12-08T11:26:54.818Z,3.29
2022-12-08T11:29:22.013Z,3.04
2022-12-08T11:31:54.653Z,2.91
2022-12-08T11:34:53.196Z,3.29
2022-12-08T11:37:34.482Z,3.41
2022-12-08T11:40:07.127Z,3.24
2022-12-08T11:42:44.207Z,3.15
2022-12-08T11:45:20.262Z,3.29
2022-12-08T11:47:56.146Z,3.50
2022-12-08T11:50:29.439Z,3.32
2022-12-08T11:52:58.543Z,2.81
2022-12-08T11:55:48.099Z,3.36
2022-12-08T11:58:36.207Z,3.08
2022-12-08T12:01:02.789Z,3.53
2022-12-08T12:03:44.436Z,3.09
2022-12-08T12:07:00.358Z,2.71
2022-12-08T12:09:45.774Z,2.39
2022-12-08T12:12:41.171Z,2.58
2022-12-08T12:15:43.517Z,3.06
2022-12-08T12:18:22.305Z,3.17
2022-12-08T12:21:20.191Z,3.31
2022-12-08T12:23:57.672Z,2.66
2022-12-08T12:26:28.125Z,2.47
2022-12-08T12:29:07.659Z,2.27
2022-12-08T12:31:40.326Z,2.44
2022-12-08T12:34:21.329Z,2.96
2022-12-08T12:36:55.653Z,2.84
2022-12-08T12:39:29.325Z,2.88
2022-12-08T12:42:01.585Z,3.04
2022-12-08T12:44:27.937Z,3.13
2022-12-08T12:46:57.438Z,3.00
2022-12-08T12:49:38.988Z,2.99
2022-12-08T12:52:17.279Z,3.29
2022-12-08T12:54:45.508Z,3.00
2022-12-08T12:57:11.823Z,3.14
2022-12-08T12:59:55.488Z,3.21
2022-12-08T13:02:31.366Z,3.06
2022-12-08T13:05:14.961Z,2.99
2022-12-08T13:08:01.038Z,2.95
2022-12-08T13:10:32.317Z,2.95
2022-12-08T13:13:10.979Z,2.91
2022-12-08T13:15:41.644Z,3.21
2022-12-08T13:18:28.619Z,3.11
2022-12-08T13:21:04.263Z,2.95
2022-12-08T13:23:36.896Z,3.33
2022-12-08T13:26:11.020Z,3.24
2022-12-08T13:28:59.390Z,2.94
2022-12-08T13:31:52.220Z,2.55
2022-12-08T13:34:59.880Z,2.64
2022-12-08T13:37:42.183Z,2.08
2022-12-08T13:40:19.087Z,2.76
2022-12-08T13:43:05.933Z,2.31
2022-12-08T13:46:18.331Z,2.93
2022-12-08T13:49:32.059Z,2.51
2022-12-08T13:57:27.940Z,2.28
2022-12-08T13:59:54.414Z,2.80
2022-12-08T14:02:33.028Z,2.23
2022-12-08T14:07:48.405Z,2.73
2022-12-08T14:10:22.315Z,2.52
2022-12-08T14:12:55.976Z,2.13
2022-12-08T14:15:22.562Z,2.18
2022-12-08T14:17:54.711Z,1.62
2022-12-08T14:20:33.837Z,2.18
2022-12-08T14:23:08.904Z,2.20
2022-12-08T14:25:35.776Z,2.16
2022-12-08T14:28:04.141Z,2.66
2022-12-08T14:30:32.508Z,2.68
2022-12-08T14:33:00.872Z,2.66
2022-12-08T14:35:33.250Z,2.71
2022-12-08T14:38:05.698Z,2.65
2022-12-08T14:40:38.914Z,2.72
2022-12-08T14:43:08.246Z,2.66
2022-12-08T14:45:45.155Z,2.19
2022-12-08T14:48:32.840Z,2.56
2022-12-08T14:51:12.502Z,2.34
2022-12-08T14:53:42.383Z,2.10
2022-12-08T14:56:17.979Z,2.39
2022-12-08T14:58:44.772Z,2.45
2022-12-08T15:01:14.753Z,2.48
2022-12-08T15:03:44.625Z,2.40
2022-12-08T15:06:13.933Z,2.30
2022-12-08T15:08:57.459Z,2.37
2022-12-08T15:11:23.874Z,2.49
2022-12-08T15:13:52.939Z,2.11
2022-12-08T15:16:38.663Z,2.31
2022-12-08T15:19:27.266Z,2.46
2022-12-08T15:21:55.378Z,2.44
2022-12-08T15:24:25.706Z,2.47
2022-12-08T15:26:52.996Z,2.45
2022-12-08T15:29:28.037Z,2.09
2022-12-08T15:31:57.894Z,2.34
2022-12-08T15:34:24.843Z,2.19
2022-12-08T15:36:53.236Z,2.39
2022-12-08T15:39:28.497Z,2.12
2022-12-08T15:41:54.943Z,2.49
2022-12-08T15:44:21.355Z,2.31
2022-12-08T15:46:47.835Z,2.39
2022-12-08T15:49:17.928Z,2.52
2022-12-08T15:51:45.194Z,2.40
2022-12-08T15:54:11.866Z,2.52
2022-12-08T15:57:02.974Z,2.55
2022-12-08T15:59:28.991Z,2.07
2022-12-08T16:01:55.419Z,2.41
2022-12-08T16:05:25.232Z,1.93
2022-12-08T16:07:27.394Z,2.33
2022-12-08T16:09:54.952Z,1.95
2022-12-08T16:12:25.478Z,2.45
2022-12-08T16:17:40.184Z,2.06
2022-12-08T16:20:13.153Z,1.85
2022-12-08T16:23:03.600Z,1.68
2022-12-08T16:25:26.654Z,2.29
2022-12-08T16:28:02.846Z,2.31
2022-12-08T16:30:35.216Z,2.22
2022-12-08T16:33:01.919Z,2.41
2022-12-08T16:35:28.682Z,2.47
2022-12-08T16:37:55.240Z,2.67
2022-12-08T16:40:22.055Z,2.56
2022-12-08T16:42:48.867Z,2.66
2022-12-08T16:45:21.338Z,2.11
2022-12-08T16:47:57.372Z,2.54
2022-12-08T16:50:33.113Z,2.20
2022-12-08T16:53:03.287Z,2.38
2022-12-08T16:55:30.303Z,2.65
2022-12-08T16:57:57.275Z,2.29
2022-12-08T17:00:26.019Z,2.30
2022-12-08T17:02:53.534Z,2.81
2022-12-08T17:05:21.968Z,2.65
2022-12-08T17:07:50.534Z,2.66
2022-12-08T17:10:23.613Z,2.28
2022-12-08T17:12:51.188Z,2.49
2022-12-08T17:15:20.912Z,2.55
2022-12-08T17:17:47.549Z,2.71
2022-12-08T17:20:34.243Z,2.59
2022-12-08T17:23:00.675Z,2.35
2022-12-08T17:25:27.422Z,2.21
2022-12-08T17:27:54.417Z,2.29
2022-12-08T17:30:20.963Z,1.64
2022-12-08T17:32:47.537Z,2.11
2022-12-08T17:35:13.998Z,1.65
2022-12-08T17:37:40.836Z,1.97
2022-12-08T17:40:08.244Z,2.05
2022-12-08T17:42:34.763Z,2.00
2022-12-08T17:45:01.173Z,1.89
2022-12-08T17:47:27.648Z,1.95
2022-12-08T17:49:54.039Z,1.79
2022-12-08T17:52:20.463Z,1.85
2022-12-08T17:54:46.896Z,1.84
2022-12-08T17:57:13.343Z,1.81
2022-12-08T17:59:39.969Z,1.67
2022-12-08T18:02:06.717Z,1.35
2022-12-08T18:04:33.211Z,1.74
2022-12-08T18:06:59.631Z,1.19
2022-12-08T18:09:26.156Z,1.14
2022-12-08T18:11:52.709Z,1.58
2022-12-08T18:14:19.152Z,1.57
2022-12-08T18:16:46.735Z,1.18
2022-12-08T18:19:14.420Z,1.56
2022-12-08T18:21:42.021Z,1.59
2022-12-08T18:24:15.200Z,1.50
2022-12-08T18:26:41.588Z,1.50
2022-12-08T18:29:08.046Z,1.11
2022-12-08T18:31:34.468Z,1.61
2022-12-08T18:34:00.897Z,1.60
2022-12-08T18:36:27.329Z,1.61
2022-12-08T18:38:53.830Z,1.62
2022-12-08T18:41:23.423Z,1.88
2022-12-08T18:43:50.639Z,1.92
2022-12-08T18:46:17.098Z,1.73
2022-12-08T18:48:47.503Z,1.20
2022-12-08T18:51:16.826Z,1.59
2022-12-08T18:53:44.379Z,1.57
2022-12-08T18:56:27.612Z,1.63
2022-12-08T18:59:01.280Z,1.58
2022-12-08T19:01:30.191Z,1.53
2022-12-08T19:06:47.548Z,1.76
2022-12-08T19:09:14.003Z,1.73
2022-12-08T19:11:41.917Z,1.80
2022-12-08T19:14:09.142Z,1.73
2022-12-08T19:16:35.999Z,1.72
2022-12-08T19:19:03.393Z,1.73
2022-12-08T19:21:32.206Z,1.62
2022-12-08T19:23:58.579Z,1.09
2022-12-08T19:26:27.183Z,1.39
2022-12-08T19:28:53.956Z,1.50
2022-12-08T19:31:20.655Z,1.47
2022-12-08T19:33:47.098Z,1.33
2022-12-08T19:36:16.715Z,1.30
2022-12-08T19:38:43.505Z,1.12
2022-12-08T19:41:10.130Z,1.16
2022-12-08T19:43:36.659Z,1.20
2022-12-08T19:46:03.232Z,1.15
2022-12-08T19:48:29.824Z,0.60
2022-12-08T19:50:56.959Z,1.06
2022-12-08T19:53:23.724Z,0.55
2022-12-08T19:55:50.734Z,0.62
2022-12-08T19:58:17.392Z,0.60
2022-12-08T20:00:43.804Z,0.58
2022-12-08T20:03:15.058Z,0.68
2022-12-08T20:05:42.203Z,0.96
2022-12-08T20:08:09.361Z,1.11
2022-12-08T20:10:38.653Z,1.16
2022-12-08T20:13:06.168Z,0.72
2022-12-08T20:15:32.689Z,1.16
2022-12-08T20:17:59.182Z,1.15
2022-12-08T20:20:25.580Z,1.15
2022-12-08T20:22:51.983Z,1.12
2022-12-08T20:25:19.029Z,1.09
2022-12-08T20:27:45.736Z,1.15
2022-12-08T20:30:17.013Z,0.87
2022-12-08T20:32:44.184Z,0.60
2022-12-08T20:35:10.656Z,1.09
2022-12-08T20:37:37.116Z,1.03
2022-12-08T20:40:04.745Z,0.63
2022-12-08T20:42:31.220Z,0.38
2022-12-08T20:44:57.675Z,0.93
2022-12-08T20:47:24.303Z,0.93
2022-12-08T20:49:50.949Z,0.95
2022-12-08T20:52:18.488Z,1.00
2022-12-08T20:54:45.050Z,0.91
2022-12-08T20:57:11.646Z,0.66
2022-12-08T20:59:38.366Z,0.31
2022-12-08T21:02:04.965Z,0.93
2022-12-08T21:04:31.603Z,0.72
2022-12-08T21:06:58.155Z,0.95
2022-12-08T21:09:24.785Z,0.95
2022-12-08T21:11:51.307Z,0.39
2022-12-08T21:14:17.975Z,0.92
2022-12-08T21:16:44.580Z,0.84
2022-12-08T21:19:11.988Z,0.79
2022-12-08T21:21:38.791Z,0.76
2022-12-08T21:24:05.773Z,0.83
2022-12-08T21:26:32.453Z,0.80
2022-12-08T21:28:59.086Z,0.29
2022-12-08T21:31:26.030Z,0.85
2022-12-08T21:33:52.955Z,0.78
2022-12-08T21:36:21.296Z,0.66
2022-12-08T21:38:48.360Z,0.74
2022-12-08T21:41:18.024Z,0.31
2022-12-08T21:43:44.490Z,0.75
2022-12-08T21:46:15.685Z,0.69
2022-12-08T21:48:42.590Z,0.65
2022-12-08T21:51:09.283Z,0.23
2022-12-08T21:53:35.820Z,0.69
2022-12-08T21:56:02.294Z,0.60
2022-12-08T21:58:28.911Z,0.64
2022-12-08T22:00:55.645Z,0.27
2022-12-08T22:03:22.511Z,0.74
2022-12-08T22:05:49.047Z,0.70
2022-12-08T22:08:15.672Z,0.69
2022-12-08T22:10:47.319Z,0.76
2022-12-08T22:13:13.925Z,0.65
2022-12-08T22:15:40.358Z,0.62
2022-12-08T22:18:06.984Z,0.64
2022-12-08T22:20:33.758Z,0.58
2022-12-08T22:23:00.263Z,0.45
2022-12-08T22:25:26.832Z,0.40
2022-12-08T22:27:53.241Z,0.43
2022-12-08T22:30:19.899Z,-0.06
2022-12-08T22:32:46.612Z,0.32
2022-12-08T22:35:13.159Z,0.21
2022-12-08T22:37:39.523Z,0.07
2022-12-08T22:40:07.497Z,0.16
2022-12-08T22:42:34.135Z,0.31
2022-12-08T22:45:00.613Z,0.31
2022-12-08T22:47:27.259Z,0.15
2022-12-08T22:49:53.677Z,-0.24
2022-12-08T22:52:20.251Z,0.03
2022-12-08T22:54:46.809Z,0.30
2022-12-08T22:57:13.319Z,0.29
2022-12-08T22:59:39.772Z,-0.26
2022-12-08T23:02:07.486Z,0.10
2022-12-08T23:04:34.791Z,0.17
2022-12-08T23:07:02.032Z,0.17
2022-12-08T23:09:28.517Z,0.22
2022-12-08T23:11:55.786Z,0.04
2022-12-08T23:14:22.656Z,0.02
2022-12-08T23:16:49.245Z,0.04
2022-12-08T23:19:15.765Z,-0.55
2022-12-08T23:21:42.284Z,-0.11
2022-12-08T23:24:08.730Z,-0.58
2022-12-08T23:26:35.451Z,-0.06
2022-12-08T23:29:02.308Z,-0.05
2022-12-08T23:31:29.071Z,-0.22
2022-12-08T23:33:56.068Z,0.15
2022-12-08T23:36:23.638Z,0.47
2022-12-08T23:38:50.106Z,0.15
2022-12-08T23:41:16.788Z,0.62
2022-12-08T23:43:51.365Z,0.19
2022-12-08T23:46:20.277Z,0.74
2022-12-08T23:48:47.382Z,0.83
2022-12-08T23:51:14.543Z,0.84
2022-12-08T23:53:41.590Z,0.84
2022-12-08T23:56:11.168Z,0.91
2022-12-08T23:58:38.033Z,0.95
